createdAt,value
2022-12-13T00:01:58.259Z,49.33
2022-12-13T00:04:26.805Z,49.75
2022-12-13T00:06:54.616Z,49.35
2022-12-13T00:09:22.568Z,49.27
2022-12-13T00:11:50.780Z,48.97
2022-12-13T00:14:18.595Z,49.52
2022-12-13T00:16:50.265Z,49.26
2022-12-13T00:19:19.142Z,49.23
2022-12-13T00:21:47.994Z,49.47
2022-12-13T00:24:16.202Z,49.19
2022-12-13T00:26:43.986Z,49.75
2022-12-13T00:29:12.141Z,49.31
2022-12-13T00:34:28.674Z,49.23
2022-12-13T00:36:59.238Z,49.68
2022-12-13T00:39:28.133Z,50.07
2022-12-13T00:41:55.922Z,49.76
2022-12-13T00:44:24.176Z,49.83
2022-12-13T00:46:52.058Z,49.21
2022-12-13T00:49:20.363Z,49.87
2022-12-13T00:51:49.750Z,49.44
2022-12-13T00:54:18.228Z,49.67
2022-12-13T00:56:46.048Z,49.06
2022-12-13T00:59:15.859Z,49.92
2022-12-13T01:01:44.077Z,49.27
2022-12-13T01:04:12.229Z,49.74
2022-12-13T01:06:44.631Z,49.71
2022-12-13T01:09:20.289Z,49.69
2022-12-13T01:11:48.708Z,49.69
2022-12-13T01:14:18.007Z,49.72
2022-12-13T01:16:45.871Z,50.16
2022-12-13T01:19:13.766Z,50.07
2022-12-13T01:21:41.589Z,49.68
2022-12-13T01:24:09.407Z,49.45
2022-12-13T01:26:37.241Z,49.32
2022-12-13T01:29:05.862Z,49.13
2022-12-13T01:31:35.081Z,49.71
2022-12-13T01:34:10.478Z,49.81
2022-12-13T01:36:40.747Z,49.38
2022-12-13T01:39:15.167Z,49.46
2022-12-13T01:41:50.876Z,49.61
2022-12-13T01:44:55.858Z,49.31
2022-12-13T01:47:28.720Z,49.45
2022-12-13T01:50:02.133Z,49.36
2022-12-13T01:52:33.696Z,49.37
2022-12-13T01:55:06.478Z,49.89
2022-12-13T01:57:40.799Z,50.00
2022-12-13T02:00:13.097Z,49.76
2022-12-13T02:02:41.176Z,50.27
2022-12-13T02:05:25.123Z,49.87
2022-12-13T02:07:54.154Z,49.93
2022-12-13T02:10:22.018Z,50.22
2022-12-13T02:12:50.236Z,49.73
2022-12-13T02:15:19.441Z,49.56
2022-12-13T02:18:20.361Z,49.93
2022-12-13T02:21:05.867Z,50.24
2022-12-13T02:24:10.811Z,49.58
2022-12-13T02:26:43.470Z,50.17
2022-12-13T02:29:40.776Z,49.58
2022-12-13T02:32:35.877Z,50.56
2022-12-13T02:35:22.457Z,50.13
2022-12-13T02:38:24.859Z,50.35
2022-12-13T02:41:24.474Z,49.92
2022-12-13T02:44:31.525Z,50.26
2022-12-13T02:47:12.749Z,49.95
2022-12-13T02:49:55.379Z,49.98
2022-12-13T02:52:27.520Z,50.21
2022-12-13T02:54:57.563Z,50.45
2022-12-13T02:57:39.598Z,50.04
2022-12-13T03:00:13.396Z,49.81
2022-12-13T03:03:08.163Z,50.28
2022-12-13T03:06:08.348Z,49.92
2022-12-13T03:09:40.700Z,50.24
2022-12-13T03:12:46.529Z,49.97
2022-12-13T03:15:34.419Z,50.18
2022-12-13T03:18:22.245Z,49.87
2022-12-13T03:20:54.870Z,49.96
2022-12-13T03:23:23.529Z,50.02
2022-12-13T03:26:01.705Z,50.05
2022-12-13T03:28:29.464Z,49.53
2022-12-13T03:30:57.317Z,49.87
2022-12-13T03:33:25.371Z,49.61
2022-12-13T03:35:53.146Z,49.69
2022-12-13T03:38:23.205Z,49.56
2022-12-13T03:41:00.638Z,49.52
2022-12-13T03:43:28.915Z,49.41
2022-12-13T03:45:56.695Z,49.92
2022-12-13T03:48:24.684Z,49.75
2022-12-13T03:50:54.405Z,49.89
2022-12-13T03:53:32.764Z,49.58
2022-12-13T03:56:04.798Z,49.71
2022-12-13T03:58:36.111Z,49.79
2022-12-13T04:01:17.247Z,49.60
2022-12-13T04:03:47.350Z,49.49
2022-12-13T04:06:22.174Z,49.64
2022-12-13T04:08:52.747Z,49.74
2022-12-13T04:11:42.335Z,49.98
2022-12-13T04:14:21.609Z,49.93
2022-12-13T04:16:52.371Z,49.59
2022-12-13T04:19:23.400Z,49.90
2022-12-13T04:21:54.920Z,49.96
2022-12-13T04:24:32.150Z,49.75
2022-12-13T04:27:03.848Z,49.49
2022-12-13T04:29:34.349Z,49.93
2022-12-13T04:32:04.859Z,50.03
2022-12-13T04:34:37.550Z,49.57
2022-12-13T04:37:06.466Z,49.85
2022-12-13T04:39:34.729Z,49.76
2022-12-13T04:42:03.577Z,49.50
2022-12-13T04:44:36.838Z,49.66
2022-12-13T04:47:05.537Z,49.84
2022-12-13T04:49:34.339Z,49.68
2022-12-13T04:52:03.271Z,49.56
2022-12-13T04:54:36.501Z,49.50
2022-12-13T04:57:10.779Z,49.56
2022-12-13T04:59:39.249Z,49.66
2022-12-13T05:02:08.606Z,49.68
2022-12-13T05:04:36.690Z,49.42
2022-12-13T05:07:05.000Z,49.63
2022-12-13T05:09:32.831Z,49.82
2022-12-13T05:12:01.527Z,50.02
2022-12-13T05:14:33.395Z,49.66
2022-12-13T05:17:02.225Z,49.72
2022-12-13T05:19:31.315Z,50.04
2022-12-13T05:22:01.857Z,50.04
2022-12-13T05:24:31.712Z,49.75
2022-12-13T05:27:00.203Z,49.82
2022-12-13T05:29:28.144Z,49.79
2022-12-13T05:31:56.007Z,49.79
2022-12-13T05:34:23.800Z,49.75
2022-12-13T05:36:51.748Z,49.72
2022-12-13T05:39:28.828Z,49.93
2022-12-13T05:42:02.006Z,49.77
2022-12-13T05:44:32.717Z,49.71
2022-12-13T05:47:02.457Z,49.53
2022-12-13T05:49:32.294Z,49.56
2022-12-13T05:52:00.321Z,50.10
2022-12-13T05:54:28.166Z,49.69
2022-12-13T05:56:56.174Z,49.70
2022-12-13T05:59:23.986Z,49.67
2022-12-13T06:01:51.954Z,49.74
2022-12-13T06:04:22.338Z,49.70
2022-12-13T06:06:52.392Z,49.62
2022-12-13T06:09:21.414Z,49.81
2022-12-13T06:11:49.934Z,49.66
2022-12-13T06:14:22.142Z,49.58
2022-12-13T06:16:52.880Z,49.73
2022-12-13T06:19:24.129Z,49.50
2022-12-13T06:21:54.894Z,49.68
2022-12-13T06:24:23.831Z,49.39
2022-12-13T06:26:51.882Z,49.63
2022-12-13T06:29:23.859Z,49.55
2022-12-13T06:32:02.207Z,49.57
2022-12-13T06:34:36.149Z,49.49
2022-12-13T06:37:07.439Z,49.76
2022-12-13T06:39:35.707Z,49.70
2022-12-13T06:42:06.703Z,49.53
2022-12-13T06:44:35.546Z,49.78
2022-12-13T06:47:11.210Z,49.71
2022-12-13T06:49:43.124Z,49.70
2022-12-13T06:52:13.739Z,49.60
2022-12-13T06:54:43.103Z,49.71
2022-12-13T06:57:14.457Z,49.66
2022-12-13T06:59:42.692Z,49.71
2022-12-13T07:02:24.846Z,49.61
2022-12-13T07:04:54.858Z,49.68
2022-12-13T07:07:23.564Z,49.46
2022-12-13T07:09:51.503Z,49.64
2022-12-13T07:12:21.044Z,49.59
2022-12-13T07:14:48.966Z,49.67
2022-12-13T07:17:32.894Z,49.76
2022-12-13T07:20:10.661Z,49.84
2022-12-13T07:22:46.755Z,50.07
2022-12-13T07:25:27.103Z,49.78
2022-12-13T07:28:03.007Z,49.97
2022-12-13T07:30:40.964Z,49.85
2022-12-13T07:33:09.449Z,49.93
2022-12-13T07:35:37.858Z,49.70
2022-12-13T07:38:11.338Z,50.03
2022-12-13T07:40:40.876Z,49.94
2022-12-13T07:43:10.106Z,50.12
2022-12-13T07:45:38.541Z,49.91
2022-12-13T07:48:08.558Z,49.99
2022-12-13T07:50:38.205Z,49.75
2022-12-13T07:53:08.486Z,49.93
2022-12-13T07:55:37.679Z,50.00
2022-12-13T07:58:14.229Z,50.07
2022-12-13T08:00:46.882Z,49.82
2022-12-13T08:03:24.605Z,49.90
2022-12-13T08:06:09.494Z,49.97
2022-12-13T08:08:38.704Z,50.13
2022-12-13T08:11:12.734Z,50.37
2022-12-13T08:13:43.430Z,50.39
2022-12-13T08:16:26.030Z,50.08
2022-12-13T08:19:02.849Z,49.46
2022-12-13T08:22:01.745Z,49.87
2022-12-13T08:24:31.509Z,50.07
2022-12-13T08:27:02.832Z,50.15
2022-12-13T08:29:35.646Z,50.12
2022-12-13T08:32:07.989Z,49.86
2022-12-13T08:34:36.101Z,49.72
2022-12-13T08:37:04.697Z,49.94
2022-12-13T08:39:36.321Z,50.12
2022-12-13T08:42:15.903Z,50.13
2022-12-13T08:44:51.104Z,50.11
2022-12-13T08:47:25.563Z,50.03
2022-12-13T08:50:02.869Z,50.13
2022-12-13T08:52:40.748Z,50.27
2022-12-13T08:55:15.343Z,50.37
2022-12-13T08:57:44.467Z,49.85
2022-12-13T09:00:16.051Z,50.13
2022-12-13T09:02:44.261Z,50.33
2022-12-13T09:05:13.170Z,50.57
2022-12-13T09:08:02.921Z,50.20
2022-12-13T09:10:38.612Z,50.18
2022-12-13T09:13:11.814Z,50.08
2022-12-13T09:15:46.240Z,50.17
2022-12-13T09:18:15.177Z,50.12
2022-12-13T09:20:52.340Z,50.51
2022-12-13T09:23:24.034Z,50.42
2022-12-13T09:26:05.717Z,50.40
2022-12-13T09:28:37.070Z,50.14
2022-12-13T09:31:15.482Z,50.52
2022-12-13T09:33:44.722Z,50.55
2022-12-13T09:36:18.413Z,50.37
2022-12-13T09:38:47.204Z,50.14
2022-12-13T09:41:29.776Z,50.18
2022-12-13T09:44:32.042Z,50.52
2022-12-13T09:47:01.164Z,50.70
2022-12-13T09:49:40.457Z,50.39
2022-12-13T09:52:21.293Z,50.20
2022-12-13T09:54:57.564Z,50.59
2022-12-13T09:57:34.111Z,49.96
2022-12-13T10:00:07.556Z,50.69
2022-12-13T10:02:59.916Z,50.56
2022-12-13T10:05:40.056Z,50.26
2022-12-13T10:08:20.718Z,50.25
2022-12-13T10:10:51.755Z,50.52
2022-12-13T10:13:44.600Z,49.82
2022-12-13T10:16:46.052Z,50.41
2022-12-13T10:19:35.986Z,50.23
2022-12-13T10:22:08.633Z,50.68
2022-12-13T10:25:00.315Z,49.92
2022-12-13T10:27:40.542Z,50.09
2022-12-13T10:30:27.975Z,50.41
2022-12-13T10:32:59.288Z,49.57
2022-12-13T10:35:34.606Z,50.27
2022-12-13T10:38:32.134Z,50.25
2022-12-13T10:41:01.039Z,50.34
2022-12-13T10:43:32.945Z,50.14
2022-12-13T10:46:03.235Z,50.20
2022-12-13T10:48:46.786Z,50.22
2022-12-13T10:51:20.135Z,50.05
2022-12-13T10:53:59.509Z,50.03
2022-12-13T10:56:40.111Z,49.72
2022-12-13T10:59:37.736Z,49.84
2022-12-13T11:02:37.461Z,49.70
2022-12-13T11:05:32.431Z,49.83
2022-12-13T11:08:32.749Z,49.54
2022-12-13T11:11:09.660Z,49.38
2022-12-13T11:13:54.621Z,48.88
2022-12-13T11:16:35.379Z,49.57
2022-12-13T11:19:11.622Z,49.50
2022-12-13T11:21:39.784Z,49.55
2022-12-13T11:24:09.178Z,48.97
2022-12-13T11:26:39.743Z,49.50
2022-12-13T11:30:05.731Z,49.25
2022-12-13T11:33:01.440Z,49.33
2022-12-13T11:35:47.949Z,49.22
2022-12-13T11:38:36.544Z,48.79
2022-12-13T11:41:31.317Z,48.55
2022-12-13T11:44:16.755Z,49.17
2022-12-13T11:46:51.900Z,49.09
2022-12-13T11:49:42.211Z,48.63
2022-12-13T11:52:24.164Z,48.46
2022-12-13T11:55:17.604Z,48.89
2022-12-13T11:57:53.311Z,48.15
2022-12-13T12:00:54.782Z,48.71
2022-12-13T12:04:02.333Z,48.66
2022-12-13T12:06:38.603Z,48.42
2022-12-13T12:09:13.860Z,48.34
2022-12-13T12:12:03.626Z,48.07
2022-12-13T12:15:15.478Z,48.69
2022-12-13T12:17:44.641Z,48.29
2022-12-13T12:20:24.670Z,48.50
2022-12-13T12:23:32.293Z,48.19
2022-12-13T12:26:15.846Z,48.09
2022-12-13T12:29:19.995Z,48.31
2022-12-13T12:32:16.658Z,48.38
2022-12-13T12:34:50.255Z,47.65
2022-12-13T12:37:53.692Z,48.01
2022-12-13T12:41:24.480Z,47.84
2022-12-13T12:44:17.742Z,48.08
2022-12-13T12:47:29.087Z,47.64
2022-12-13T12:50:12.237Z,47.52
2022-12-13T12:53:00.133Z,47.94
2022-12-13T12:55:59.892Z,47.57
2022-12-13T12:58:46.122Z,47.72
2022-12-13T13:01:49.214Z,47.98
2022-12-13T13:04:23.187Z,47.46
2022-12-13T13:07:04.002Z,47.45
2022-12-13T13:09:33.237Z,47.74
2022-12-13T13:12:29.272Z,47.45
2022-12-13T13:14:54.167Z,47.09
2022-12-13T13:17:24.840Z,47.35
2022-12-13T13:20:25.112Z,47.17
2022-12-13T13:23:39.162Z,47.33
2022-12-13T13:28:44.375Z,47.19
2022-12-13T13:31:12.673Z,46.70
2022-12-13T13:33:49.077Z,46.43
2022-12-13T13:36:38.664Z,47.32
2022-12-13T13:39:53.226Z,46.75
2022-12-13T13:42:32.695Z,46.89
2022-12-13T13:45:23.636Z,46.65
2022-12-13T13:48:41.699Z,46.61
2022-12-13T13:55:11.954Z,46.45
2022-12-13T13:58:35.369Z,46.78
2022-12-13T14:01:44.400Z,46.62
2022-12-13T14:04:34.125Z,46.56
2022-12-13T14:08:20.312Z,46.49
2022-12-13T14:10:51.862Z,46.10
2022-12-13T14:14:03.089Z,46.68
2022-12-13T14:16:43.036Z,46.42
2022-12-13T14:20:06.461Z,46.89
2022-12-13T14:23:00.457Z,46.47
2022-12-13T14:26:17.281Z,46.39
2022-12-13T14:28:56.467Z,46.73
2022-12-13T14:31:43.392Z,46.35
2022-12-13T14:34:29.791Z,46.32
2022-12-13T14:37:01.749Z,46.72
2022-12-13T14:39:31.367Z,46.36
2022-12-13T14:42:02.042Z,46.25
2022-12-13T14:44:35.890Z,46.06
2022-12-13T14:47:07.415Z,46.59
2022-12-13T14:49:48.626Z,46.23
2022-12-13T14:52:29.424Z,46.63
2022-12-13T14:55:00.843Z,46.07
2022-12-13T14:57:32.027Z,46.26
2022-12-13T15:00:25.981Z,46.51
2022-12-13T15:03:00.137Z,46.59
2022-12-13T15:05:36.085Z,46.79
2022-12-13T15:08:10.466Z,46.98
2022-12-13T15:10:48.117Z,46.44
2022-12-13T15:13:43.299Z,46.84
2022-12-13T15:16:28.131Z,47.22
2022-12-13T15:19:29.036Z,46.92
2022-12-13T15:22:16.383Z,46.90
2022-12-13T15:24:52.149Z,47.20
2022-12-13T15:27:28.074Z,47.54
2022-12-13T15:29:56.175Z,47.67
2022-12-13T15:32:24.222Z,47.13
2022-12-13T15:34:52.748Z,47.84
2022-12-13T15:37:42.802Z,47.34
2022-12-13T15:40:25.839Z,47.37
2022-12-13T15:42:58.439Z,47.77
2022-12-13T15:45:36.403Z,47.69
2022-12-13T15:48:08.103Z,48.02
2022-12-13T15:50:48.994Z,48.00
2022-12-13T15:53:31.458Z,48.04
2022-12-13T15:56:09.463Z,47.65
2022-12-13T15:58:39.411Z,48.15
2022-12-13T16:01:28.158Z,47.83
2022-12-13T16:03:57.665Z,48.12
2022-12-13T16:06:31.193Z,48.16
2022-12-13T16:09:08.455Z,47.79
2022-12-13T16:12:00.708Z,47.05
2022-12-13T16:15:20.251Z,48.07
2022-12-13T16:18:28.957Z,47.75
2022-12-13T16:21:04.538Z,47.70
2022-12-13T16:23:34.237Z,47.50
2022-12-13T16:26:08.722Z,47.17
2022-12-13T16:28:39.771Z,47.19
2022-12-13T16:31:17.750Z,47.63
2022-12-13T16:33:45.710Z,47.54
2022-12-13T16:36:13.742Z,47.44
2022-12-13T16:38:41.550Z,47.03
2022-12-13T16:41:10.159Z,47.72
2022-12-13T16:43:50.627Z,47.28
2022-12-13T16:47:10.110Z,46.81
2022-12-13T16:49:27.926Z,46.89
2022-12-13T16:51:56.685Z,46.79
2022-12-13T16:54:25.993Z,47.02
2022-12-13T16:56:54.433Z,47.35
2022-12-13T16:59:25.218Z,46.93
2022-12-13T17:01:53.834Z,47.09
2022-12-13T17:04:24.380Z,46.97
2022-12-13T17:06:54.959Z,46.78
2022-12-13T17:09:24.463Z,46.82
2022-12-13T17:11:52.417Z,47.50
2022-12-13T17:14:20.786Z,47.49
2022-12-13T17:16:48.706Z,47.52
2022-12-13T17:19:17.427Z,47.55
2022-12-13T17:21:45.210Z,47.23
2022-12-13T17:24:12.948Z,47.10
2022-12-13T17:26:41.599Z,47.50
2022-12-13T17:29:26.001Z,47.42
2022-12-13T17:31:53.767Z,47.37
2022-12-13T17:34:22.076Z,47.28
2022-12-13T17:36:49.855Z,47.69
2022-12-13T17:39:17.815Z,47.53
2022-12-13T17:41:55.346Z,47.01
2022-12-13T17:44:25.595Z,47.26
2022-12-13T17:46:55.641Z,46.63
2022-12-13T17:49:24.688Z,46.93
2022-12-13T17:51:55.642Z,47.20
2022-12-13T17:54:25.510Z,46.95
2022-12-13T17:56:54.451Z,47.38
2022-12-13T17:59:22.679Z,47.29
2022-12-13T18:01:51.348Z,47.83
2022-12-13T18:04:19.996Z,47.72
2022-12-13T18:06:47.752Z,47.45
2022-12-13T18:09:15.541Z,46.82
2022-12-13T18:11:43.971Z,47.36
2022-12-13T18:14:12.168Z,47.30
2022-12-13T18:16:40.943Z,47.53
2022-12-13T18:19:12.607Z,46.97
2022-12-13T18:21:41.046Z,47.31
2022-12-13T18:24:10.905Z,47.00
2022-12-13T18:26:38.663Z,47.59
2022-12-13T18:29:06.643Z,47.33
2022-12-13T18:31:34.682Z,47.24
2022-12-13T18:34:02.608Z,47.22
2022-12-13T18:36:30.986Z,47.02
2022-12-13T18:38:58.881Z,47.05
2022-12-13T18:41:29.671Z,47.41
2022-12-13T18:44:01.816Z,47.36
2022-12-13T18:46:34.526Z,47.29
2022-12-13T18:49:03.795Z,47.61
2022-12-13T18:51:32.271Z,47.46
2022-12-13T18:54:00.139Z,46.95
2022-12-13T18:56:28.203Z,46.90
2022-12-13T18:58:58.049Z,46.90
2022-12-13T19:01:30.421Z,47.15
2022-12-13T19:03:58.469Z,47.08
2022-12-13T19:06:28.611Z,47.32
2022-12-13T19:08:58.389Z,47.20
2022-12-13T19:11:28.481Z,47.30
2022-12-13T19:13:56.805Z,47.12
2022-12-13T19:16:25.823Z,46.62
2022-12-13T19:18:54.121Z,47.53
2022-12-13T19:21:22.886Z,47.18
2022-12-13T19:23:57.032Z,47.35
2022-12-13T19:26:29.644Z,46.86
2022-12-13T19:28:58.783Z,46.83
2022-12-13T19:31:30.895Z,46.67
2022-12-13T19:34:02.221Z,47.31
2022-12-13T19:36:32.169Z,47.09
2022-12-13T19:39:00.098Z,46.83
2022-12-13T19:41:28.524Z,47.00
2022-12-13T19:43:56.261Z,46.81
2022-12-13T19:46:24.756Z,47.01
2022-12-13T19:48:52.565Z,46.58
2022-12-13T19:51:22.760Z,46.72
2022-12-13T19:53:50.790Z,46.91
2022-12-13T19:56:20.793Z,47.14
2022-12-13T19:58:50.092Z,46.41
2022-12-13T20:01:18.850Z,46.75
2022-12-13T20:03:47.435Z,46.39
2022-12-13T20:06:22.188Z,46.83
2022-12-13T20:08:50.586Z,46.79
2022-12-13T20:11:23.376Z,46.89
2022-12-13T20:13:55.129Z,46.94
2022-12-13T20:16:26.057Z,46.71
2022-12-13T20:18:58.738Z,46.47
2022-12-13T20:21:28.204Z,46.26
2022-12-13T20:23:56.654Z,46.80
2022-12-13T20:26:29.201Z,46.91
2022-12-13T20:28:57.448Z,46.60
2022-12-13T20:31:31.600Z,46.81
2022-12-13T20:34:06.762Z,46.11
2022-12-13T20:36:34.523Z,47.17
2022-12-13T20:39:04.973Z,46.35
2022-12-13T20:41:35.392Z,46.86
2022-12-13T20:44:07.267Z,46.53
2022-12-13T20:46:37.057Z,46.72
2022-12-13T20:49:07.473Z,46.27
2022-12-13T20:51:37.805Z,46.66
2022-12-13T20:54:06.352Z,46.64
2022-12-13T20:56:37.917Z,47.07
2022-12-13T20:59:10.662Z,46.94
2022-12-13T21:01:41.012Z,46.45
2022-12-13T21:04:10.883Z,46.49
2022-12-13T21:06:41.700Z,46.47
2022-12-13T21:09:11.336Z,47.15
2022-12-13T21:11:46.906Z,46.14
2022-12-13T21:14:25.679Z,46.66
2022-12-13T21:16:56.964Z,47.00
2022-12-13T21:19:39.043Z,46.58
2022-12-13T21:22:08.036Z,46.17
2022-12-13T21:24:35.772Z,46.16
2022-12-13T21:27:04.545Z,46.51
2022-12-13T21:29:32.282Z,46.04
2022-12-13T21:32:00.128Z,46.08
2022-12-13T21:34:28.024Z,46.27
2022-12-13T21:36:55.809Z,46.38
2022-12-13T21:39:28.319Z,46.68
2022-12-13T21:41:57.088Z,46.49
2022-12-13T21:44:24.996Z,46.88
2022-12-13T21:49:41.054Z,46.43
2022-12-13T21:52:08.821Z,46.55
2022-12-13T21:54:36.591Z,45.98
2022-12-13T21:57:22.848Z,46.47
2022-12-13T21:59:50.546Z,46.56
2022-12-13T22:02:19.264Z,45.93
2022-12-13T22:04:56.777Z,46.06
2022-12-13T22:07:33.767Z,46.38
2022-12-13T22:10:02.608Z,45.70
2022-12-13T22:12:41.401Z,45.67
2022-12-13T22:15:13.316Z,46.35
2022-12-13T22:17:42.813Z,46.06
2022-12-13T22:20:15.521Z,45.73
2022-12-13T22:22:44.353Z,46.25
2022-12-13T22:25:12.588Z,46.50
2022-12-13T22:27:40.341Z,45.78
2022-12-13T22:30:08.942Z,46.40
2022-12-13T22:32:36.806Z,46.25
2022-12-13T22:35:04.877Z,45.80
2022-12-13T22:37:33.275Z,45.89
2022-12-13T22:40:01.802Z,46.21
2022-12-13T22:42:29.551Z,45.86
2022-12-13T22:44:57.255Z,46.45
2022-12-13T22:47:25.034Z,46.11
2022-12-13T22:49:52.778Z,45.81
2022-12-13T22:52:20.527Z,45.74
2022-12-13T22:54:48.232Z,45.38
2022-12-13T22:57:15.980Z,46.37
2022-12-13T22:59:43.698Z,45.47
2022-12-13T23:02:11.568Z,45.63
2022-12-13T23:04:39.471Z,46.05
2022-12-13T23:07:07.194Z,46.00
2022-12-13T23:09:34.938Z,45.82
2022-12-13T23:12:21.156Z,45.92
2022-12-13T23:14:51.349Z,45.66
2022-12-13T23:17:19.287Z,46.10
2022-12-13T23:19:50.363Z,46.50
2022-12-13T23:22:23.231Z,45.95
2022-12-13T23:24:52.482Z,45.74
2022-12-13T23:27:23.048Z,45.90
2022-12-13T23:29:50.888Z,45.62
2022-12-13T23:32:18.936Z,45.75
2022-12-13T23:34:46.677Z,45.45
2022-12-13T23:37:14.407Z,45.69
2022-12-13T23:39:42.140Z,45.85
2022-12-13T23:42:09.848Z,45.99
2022-12-13T23:44:37.665Z,45.88
2022-12-13T23:47:05.444Z,46.29
2022-12-13T23:49:33.191Z,45.99
2022-12-13T23:52:00.900Z,45.95
2022-12-13T23:54:28.638Z,46.03
2022-12-13T23:56:56.380Z,45.87
2022-12-13T23:59:26.034Z,45.75
